createdAt,value
2023-02-03T00:00:12.196Z,101612.97
2023-02-03T00:02:39.245Z,101608.41
2023-02-03T00:05:06.308Z,101606.59
2023-02-03T00:07:32.831Z,101599.00
2023-02-03T00:09:59.329Z,101606.66
2023-02-03T00:12:25.964Z,101608.03
2023-02-03T00:14:52.452Z,101604.00
2023-02-03T00:17:18.989Z,101599.47
2023-02-03T00:19:45.559Z,101599.31
2023-02-03T00:22:12.244Z,101603.13
2023-02-03T00:24:39.240Z,101603.13
2023-02-03T00:27:06.179Z,101601.22
2023-02-03T00:29:32.922Z,101595.25
2023-02-03T00:31:59.526Z,101591.44
2023-02-03T00:34:30.327Z,101590.06
2023-02-03T00:36:57.812Z,101598.81
2023-02-03T00:39:24.382Z,101599.31
2023-02-03T00:41:50.845Z,101599.19
2023-02-03T00:44:17.365Z,101602.63
2023-02-03T00:46:43.848Z,101605.16
2023-02-03T00:49:10.539Z,101607.44
2023-02-03T00:51:37.046Z,101610.72
2023-02-03T00:54:03.575Z,101601.72
2023-02-03T00:56:30.199Z,101608.97
2023-02-03T00:58:56.768Z,101613.00
2023-02-03T01:01:23.389Z,101602.47
2023-02-03T01:03:50.144Z,101605.53
2023-02-03T01:06:19.954Z,101603.50
2023-02-03T01:08:46.810Z,101597.53
2023-02-03T01:11:17.266Z,101606.66
2023-02-03T01:13:44.183Z,101605.03
2023-02-03T01:16:13.122Z,101614.53
2023-02-03T01:18:40.846Z,101620.00
2023-02-03T01:21:07.414Z,101624.81
2023-02-03T01:23:35.088Z,101621.00
2023-02-03T01:26:21.968Z,101630.34
2023-02-03T01:28:53.946Z,101633.16
2023-02-03T01:31:27.106Z,101642.88
2023-02-03T01:33:54.721Z,101638.94
2023-02-03T01:36:23.407Z,101638.81
2023-02-03T01:38:50.227Z,101634.56
2023-02-03T01:41:20.461Z,101641.66
2023-02-03T01:43:52.448Z,101630.63
2023-02-03T01:46:18.895Z,101627.06
2023-02-03T01:48:45.508Z,101629.56
2023-02-03T01:51:11.999Z,101616.03
2023-02-03T01:53:39.284Z,101619.59
2023-02-03T01:56:06.742Z,101617.69
2023-02-03T01:58:38.527Z,101619.44
2023-02-03T02:01:05.391Z,101614.88
2023-02-03T02:03:37.922Z,101608.44
2023-02-03T02:06:10.337Z,101610.56
2023-02-03T02:08:38.723Z,101601.38
2023-02-03T02:11:07.092Z,101609.81
2023-02-03T02:13:35.122Z,101593.97
2023-02-03T02:16:16.874Z,101595.63
2023-02-03T02:19:09.234Z,101604.00
2023-02-03T02:22:02.792Z,101600.47
2023-02-03T02:24:32.339Z,101600.59
2023-02-03T02:27:35.877Z,101598.59
2023-02-03T02:30:05.326Z,101602.66
2023-02-03T02:32:45.177Z,101602.75
2023-02-03T02:35:20.001Z,101604.97
2023-02-03T02:38:07.510Z,101605.19
2023-02-03T02:41:10.782Z,101593.63
2023-02-03T02:43:40.182Z,101601.91
2023-02-03T02:46:16.162Z,101589.59
2023-02-03T02:48:58.162Z,101580.56
2023-02-03T02:51:24.991Z,101575.63
2023-02-03T02:54:02.573Z,101575.13
2023-02-03T02:56:31.696Z,101573.97
2023-02-03T02:59:01.648Z,101569.03
2023-02-03T03:01:28.174Z,101562.03
2023-02-03T03:03:56.227Z,101555.97
2023-02-03T03:06:38.055Z,101556.84
2023-02-03T03:09:25.561Z,101541.53
2023-02-03T03:12:00.544Z,101546.00
2023-02-03T03:14:30.553Z,101548.91
2023-02-03T03:17:03.022Z,101543.59
2023-02-03T03:19:41.607Z,101537.78
2023-02-03T03:22:13.439Z,101534.97
2023-02-03T03:24:46.076Z,101542.22
2023-02-03T03:27:20.734Z,101547.75
2023-02-03T03:30:00.280Z,101547.69
2023-02-03T03:32:28.191Z,101548.88
2023-02-03T03:34:55.574Z,101549.66
2023-02-03T03:37:35.754Z,101546.09
2023-02-03T03:40:20.494Z,101539.31
2023-02-03T03:42:55.822Z,101542.81
2023-02-03T03:45:32.256Z,101544.56
2023-02-03T03:48:19.647Z,101544.38
2023-02-03T03:50:51.534Z,101555.28
2023-02-03T03:53:20.090Z,101546.84
2023-02-03T03:55:52.623Z,101542.31
2023-02-03T03:58:30.939Z,101535.19
2023-02-03T04:01:04.027Z,101529.72
2023-02-03T04:03:35.461Z,101528.09
2023-02-03T04:06:02.165Z,101537.31
2023-02-03T04:08:28.694Z,101538.22
2023-02-03T04:10:55.185Z,101543.72
2023-02-03T04:13:22.149Z,101545.22
2023-02-03T04:15:48.705Z,101545.63
2023-02-03T04:18:16.612Z,101543.34
2023-02-03T04:20:43.201Z,101535.63
2023-02-03T04:23:10.475Z,101538.09
2023-02-03T04:25:36.976Z,101536.00
2023-02-03T04:28:03.888Z,101536.00
2023-02-03T04:30:30.501Z,101546.72
2023-02-03T04:32:57.232Z,101543.66
2023-02-03T04:35:23.953Z,101543.34
2023-02-03T04:37:50.571Z,101559.16
2023-02-03T04:40:17.490Z,101552.22
2023-02-03T04:42:44.045Z,101544.25
2023-02-03T04:45:11.696Z,101545.28
2023-02-03T04:47:39.478Z,101544.25
2023-02-03T04:50:06.486Z,101543.47
2023-02-03T04:52:33.253Z,101547.63
2023-02-03T04:54:59.836Z,101545.63
2023-02-03T04:57:26.356Z,101534.09
2023-02-03T04:59:53.157Z,101524.53
2023-02-03T05:02:19.963Z,101526.44
2023-02-03T05:04:46.472Z,101534.84
2023-02-03T05:07:13.005Z,101532.31
2023-02-03T05:09:39.497Z,101530.38
2023-02-03T05:12:06.275Z,101529.16
2023-02-03T05:14:32.796Z,101527.88
2023-02-03T05:16:59.283Z,101532.72
2023-02-03T05:19:26.091Z,101527.13
2023-02-03T05:21:52.713Z,101532.38
2023-02-03T05:24:19.215Z,101527.59
2023-02-03T05:26:45.708Z,101541.53
2023-02-03T05:29:12.198Z,101543.59
2023-02-03T05:31:38.776Z,101547.97
2023-02-03T05:34:05.336Z,101545.22
2023-02-03T05:36:31.896Z,101546.66
2023-02-03T05:38:58.977Z,101548.84
2023-02-03T05:41:44.001Z,101543.19
2023-02-03T05:44:10.466Z,101532.84
2023-02-03T05:46:36.910Z,101540.91
2023-02-03T05:49:03.505Z,101533.06
2023-02-03T05:51:30.153Z,101532.56
2023-02-03T05:53:57.363Z,101539.50
2023-02-03T05:56:23.908Z,101537.31
2023-02-03T05:58:53.271Z,101531.78
2023-02-03T06:01:20.074Z,101535.28
2023-02-03T06:03:47.358Z,101543.44
2023-02-03T06:06:14.564Z,101535.94
2023-02-03T06:08:41.227Z,101530.25
2023-02-03T06:11:07.786Z,101536.19
2023-02-03T06:13:34.531Z,101540.16
2023-02-03T06:16:01.117Z,101540.78
2023-02-03T06:18:27.851Z,101545.22
2023-02-03T06:20:54.369Z,101553.41
2023-02-03T06:23:21.011Z,101564.31
2023-02-03T06:25:51.674Z,101560.34
2023-02-03T06:28:18.747Z,101550.38
2023-02-03T06:30:45.445Z,101562.13
2023-02-03T06:33:12.132Z,101558.94
2023-02-03T06:35:38.672Z,101567.88
2023-02-03T06:38:05.346Z,101543.06
2023-02-03T06:40:31.881Z,101536.28
2023-02-03T06:42:58.634Z,101537.28
2023-02-03T06:45:25.854Z,101541.88
2023-02-03T06:47:52.408Z,101537.16
2023-02-03T06:50:19.139Z,101544.72
2023-02-03T06:52:45.704Z,101548.09
2023-02-03T06:55:12.473Z,101544.09
2023-02-03T06:57:47.026Z,101545.19
2023-02-03T07:00:18.628Z,101555.06
2023-02-03T07:02:46.531Z,101543.88
2023-02-03T07:05:13.207Z,101561.28
2023-02-03T07:07:39.777Z,101558.75
2023-02-03T07:10:06.800Z,101561.09
2023-02-03T07:12:33.371Z,101569.13
2023-02-03T07:15:00.498Z,101566.44
2023-02-03T07:17:26.995Z,101579.59
2023-02-03T07:19:53.533Z,101578.41
2023-02-03T07:22:20.255Z,101574.59
2023-02-03T07:24:46.853Z,101577.09
2023-02-03T07:27:13.358Z,101587.75
2023-02-03T07:29:39.874Z,101598.94
2023-02-03T07:32:06.532Z,101608.00
2023-02-03T07:34:33.530Z,101605.56
2023-02-03T07:37:00.003Z,101612.78
2023-02-03T07:39:26.580Z,101611.97
2023-02-03T07:41:53.218Z,101604.06
2023-02-03T07:44:19.690Z,101608.19
2023-02-03T07:46:46.255Z,101604.06
2023-02-03T07:49:13.335Z,101613.00
2023-02-03T07:51:40.221Z,101614.28
2023-02-03T07:54:06.963Z,101613.69
2023-02-03T07:56:33.911Z,101625.28
2023-02-03T07:59:00.777Z,101624.53
2023-02-03T08:01:27.827Z,101622.13
2023-02-03T08:03:55.265Z,101614.16
2023-02-03T08:06:22.160Z,101608.44
2023-02-03T08:08:48.722Z,101625.41
2023-02-03T08:11:15.222Z,101622.09
2023-02-03T08:13:41.845Z,101617.63
2023-02-03T08:16:08.639Z,101605.38
2023-02-03T08:18:35.209Z,101596.97
2023-02-03T08:21:03.845Z,101604.91
2023-02-03T08:23:30.859Z,101603.38
2023-02-03T08:25:57.381Z,101612.38
2023-02-03T08:28:23.961Z,101622.38
2023-02-03T08:30:51.001Z,101613.25
2023-02-03T08:33:17.603Z,101618.44
2023-02-03T08:35:49.518Z,101610.28
2023-02-03T08:38:16.572Z,101612.34
2023-02-03T08:40:43.317Z,101623.63
2023-02-03T08:43:09.989Z,101616.00
2023-02-03T08:45:36.503Z,101605.34
2023-02-03T08:48:03.084Z,101598.56
2023-02-03T08:50:29.996Z,101598.66
2023-02-03T08:52:56.696Z,101607.75
2023-02-03T08:55:23.206Z,101605.69
2023-02-03T08:57:49.672Z,101606.88
2023-02-03T09:00:16.564Z,101611.03
2023-02-03T09:02:43.137Z,101615.63
2023-02-03T09:05:10.062Z,101621.22
2023-02-03T09:07:37.086Z,101603.44
2023-02-03T09:10:04.133Z,101605.56
2023-02-03T09:12:30.607Z,101610.31
2023-02-03T09:14:57.213Z,101627.31
2023-02-03T09:17:23.774Z,101634.81
2023-02-03T09:19:50.373Z,101623.16
2023-02-03T09:22:16.940Z,101625.94
2023-02-03T09:24:43.713Z,101624.00
2023-02-03T09:27:10.283Z,101631.25
2023-02-03T09:29:36.803Z,101633.78
2023-02-03T09:32:07.874Z,101631.63
2023-02-03T09:34:34.571Z,101631.19
2023-02-03T09:37:01.139Z,101634.34
2023-02-03T09:39:27.658Z,101641.84
2023-02-03T09:42:08.519Z,101644.75
2023-02-03T09:44:47.165Z,101645.44
2023-02-03T09:47:28.323Z,101651.56
2023-02-03T09:50:05.398Z,101645.50
2023-02-03T09:52:39.746Z,101652.66
2023-02-03T09:55:18.119Z,101663.44
2023-02-03T09:57:51.505Z,101673.31
2023-02-03T10:00:25.557Z,101687.66
2023-02-03T10:02:59.841Z,101690.84
2023-02-03T10:06:03.461Z,101691.47
2023-02-03T10:09:07.674Z,101697.69
2023-02-03T10:12:08.990Z,101709.25
2023-02-03T10:15:23.575Z,101719.50
2023-02-03T10:18:12.786Z,101713.72
2023-02-03T10:20:50.817Z,101716.38
2023-02-03T10:23:24.256Z,101720.31
2023-02-03T10:25:59.061Z,101725.41
2023-02-03T10:28:32.931Z,101732.00
2023-02-03T10:31:01.754Z,101732.78
2023-02-03T10:33:30.986Z,101734.78
2023-02-03T10:36:22.130Z,101745.06
2023-02-03T10:38:48.606Z,101743.41
2023-02-03T10:41:17.853Z,101735.69
2023-02-03T10:43:48.830Z,101730.97
2023-02-03T10:46:17.384Z,101726.00
2023-02-03T10:48:44.473Z,101707.84
2023-02-03T10:51:36.443Z,101711.13
2023-02-03T10:54:03.063Z,101712.25
2023-02-03T10:56:37.120Z,101713.53
2023-02-03T10:59:04.722Z,101716.47
2023-02-03T11:01:31.250Z,101713.78
2023-02-03T11:04:03.184Z,101707.00
2023-02-03T11:06:31.515Z,101711.31
2023-02-03T11:08:58.976Z,101708.84
2023-02-03T11:11:25.557Z,101706.16
2023-02-03T11:14:04.178Z,101703.63
2023-02-03T11:16:33.238Z,101710.56
2023-02-03T11:19:10.372Z,101707.06
2023-02-03T11:21:42.875Z,101708.53
2023-02-03T11:24:18.362Z,101714.88
2023-02-03T11:26:58.714Z,101711.59
2023-02-03T11:29:28.562Z,101707.06
2023-02-03T11:31:57.704Z,101709.66
2023-02-03T11:34:36.841Z,101719.09
2023-02-03T11:37:28.204Z,101713.66
2023-02-03T11:40:15.078Z,101705.50
2023-02-03T11:42:58.756Z,101696.66
2023-02-03T11:45:42.149Z,101691.56
2023-02-03T11:48:14.751Z,101696.09
2023-02-03T11:51:28.880Z,101694.00
2023-02-03T11:54:13.678Z,101688.53
2023-02-03T11:56:51.743Z,101691.22
2023-02-03T11:59:39.697Z,101690.72
2023-02-03T12:02:40.921Z,101680.31
2023-02-03T12:05:45.758Z,101680.56
2023-02-03T12:08:18.015Z,101667.97
2023-02-03T12:11:06.248Z,101666.06
2023-02-03T12:13:44.760Z,101669.22
2023-02-03T12:16:21.088Z,101662.44
2023-02-03T12:19:30.921Z,101658.13
2023-02-03T12:22:37.784Z,101656.13
2023-02-03T12:25:30.375Z,101647.94
2023-02-03T12:27:59.766Z,101639.72
2023-02-03T12:30:35.325Z,101635.97
2023-02-03T12:33:11.886Z,101637.84
2023-02-03T12:35:46.876Z,101639.16
2023-02-03T12:38:17.061Z,101628.41
2023-02-03T12:40:55.276Z,101628.75
2023-02-03T12:43:38.558Z,101613.09
2023-02-03T12:46:16.540Z,101609.09
2023-02-03T12:49:10.746Z,101612.84
2023-02-03T12:51:51.032Z,101611.22
2023-02-03T12:54:53.676Z,101598.38
2023-02-03T12:57:46.818Z,101596.72
2023-02-03T13:00:27.209Z,101589.19
2023-02-03T13:03:26.608Z,101592.66
2023-02-03T13:06:15.190Z,101580.72
2023-02-03T13:08:54.119Z,101583.31
2023-02-03T13:11:48.967Z,101578.22
2023-02-03T13:14:37.207Z,101577.13
2023-02-03T13:17:27.787Z,101575.16
2023-02-03T13:20:19.238Z,101573.81
2023-02-03T13:22:46.149Z,101564.47
2023-02-03T13:25:23.094Z,101564.19
2023-02-03T13:28:19.842Z,101560.19
2023-02-03T13:31:13.392Z,101561.56
2023-02-03T13:33:54.707Z,101551.25
2023-02-03T13:36:36.585Z,101550.22
2023-02-03T13:39:21.829Z,101551.03
2023-02-03T13:41:55.345Z,101554.84
2023-02-03T13:44:28.340Z,101548.19
2023-02-03T13:46:58.359Z,101542.56
2023-02-03T13:49:34.024Z,101541.09
2023-02-03T13:52:01.079Z,101539.91
2023-02-03T13:54:37.706Z,101535.31
2023-02-03T13:57:19.867Z,101536.09
2023-02-03T13:59:48.443Z,101537.94
2023-02-03T14:02:24.393Z,101536.09
2023-02-03T14:04:56.271Z,101537.94
2023-02-03T14:07:38.171Z,101531.31
2023-02-03T14:10:13.804Z,101526.22
2023-02-03T14:12:52.422Z,101526.63
2023-02-03T14:15:30.265Z,101528.56
2023-02-03T14:18:07.302Z,101526.31
2023-02-03T14:20:48.977Z,101529.00
2023-02-03T14:23:23.578Z,101524.59
2023-02-03T14:25:56.051Z,101521.53
2023-02-03T14:28:43.817Z,101510.94
2023-02-03T14:31:25.131Z,101513.75
2023-02-03T14:33:58.332Z,101506.56
2023-02-03T14:36:30.807Z,101511.47
2023-02-03T14:39:02.386Z,101504.78
2023-02-03T14:41:45.444Z,101504.06
2023-02-03T14:44:31.717Z,101501.38
2023-02-03T14:47:30.872Z,101510.53
2023-02-03T14:50:25.105Z,101510.03
2023-02-03T14:53:16.000Z,101510.78
2023-02-03T14:55:54.536Z,101505.69
2023-02-03T14:58:36.787Z,101514.84
2023-02-03T15:01:05.030Z,101507.09
2023-02-03T15:03:31.650Z,101512.63
2023-02-03T15:06:03.201Z,101510.50
2023-02-03T15:08:48.989Z,101518.28
2023-02-03T15:11:33.542Z,101517.25
2023-02-03T15:14:27.519Z,101516.88
2023-02-03T15:16:59.867Z,101508.25
2023-02-03T15:19:35.720Z,101516.88
2023-02-03T15:22:02.779Z,101514.16
2023-02-03T15:24:36.772Z,101518.56
2023-02-03T15:27:03.507Z,101523.69
2023-02-03T15:29:32.464Z,101521.22
2023-02-03T15:32:19.243Z,101514.78
2023-02-03T15:34:49.130Z,101518.94
2023-02-03T15:37:34.006Z,101521.47
2023-02-03T15:40:05.291Z,101527.91
2023-02-03T15:42:45.603Z,101525.84
2023-02-03T15:45:25.448Z,101534.19
2023-02-03T15:47:57.837Z,101531.31
2023-02-03T15:50:34.157Z,101531.44
2023-02-03T15:53:10.485Z,101525.16
2023-02-03T15:55:43.150Z,101522.31
2023-02-03T15:58:23.493Z,101525.28
2023-02-03T16:00:54.060Z,101532.09
2023-02-03T16:03:28.436Z,101537.72
2023-02-03T16:05:55.336Z,101535.66
2023-02-03T16:08:46.258Z,101536.28
2023-02-03T16:11:31.070Z,101548.19
2023-02-03T16:14:00.293Z,101554.00
2023-02-03T16:16:29.691Z,101551.22
2023-02-03T16:18:58.781Z,101556.44
2023-02-03T16:21:52.934Z,101558.53
2023-02-03T16:24:42.988Z,101569.16
2023-02-03T16:27:44.351Z,101575.94
2023-02-03T16:30:29.405Z,101582.16
2023-02-03T16:33:43.598Z,101587.56
2023-02-03T16:36:31.625Z,101589.75
2023-02-03T16:39:20.482Z,101592.41
2023-02-03T16:42:05.869Z,101591.03
2023-02-03T16:44:51.091Z,101601.53
2023-02-03T16:47:43.304Z,101592.00
2023-02-03T16:50:46.127Z,101605.84
2023-02-03T16:53:15.763Z,101610.16
2023-02-03T16:55:43.930Z,101619.19
2023-02-03T16:58:12.610Z,101618.50
2023-02-03T17:00:44.071Z,101619.28
2023-02-03T17:03:13.239Z,101622.72
2023-02-03T17:05:42.030Z,101628.09
2023-02-03T17:08:09.047Z,101633.41
2023-02-03T17:10:38.100Z,101641.13
2023-02-03T17:13:05.478Z,101637.78
2023-02-03T17:15:32.559Z,101641.44
2023-02-03T17:17:59.187Z,101641.59
2023-02-03T17:20:26.027Z,101646.69
2023-02-03T17:22:54.412Z,101644.75
2023-02-03T17:25:21.706Z,101647.91
2023-02-03T17:27:48.649Z,101656.66
2023-02-03T17:30:15.806Z,101645.59
2023-02-03T17:32:42.403Z,101654.69
2023-02-03T17:35:08.997Z,101653.69
2023-02-03T17:37:35.818Z,101657.94
2023-02-03T17:54:06.208Z,101658.75
2023-02-03T17:56:35.668Z,101651.75
2023-02-03T17:59:04.522Z,101662.31
2023-02-03T18:01:31.823Z,101665.28
2023-02-03T18:04:01.318Z,101659.19
2023-02-03T18:06:29.946Z,101664.75
2023-02-03T18:09:01.395Z,101655.31
2023-02-03T18:11:30.257Z,101667.53
2023-02-03T18:13:56.876Z,101659.53
2023-02-03T18:16:26.556Z,101661.44
2023-02-03T18:18:53.962Z,101658.47
2023-02-03T18:21:22.759Z,101670.00
2023-02-03T18:23:51.157Z,101673.88
2023-02-03T18:26:19.485Z,101674.06
2023-02-03T18:28:46.049Z,101677.75
2023-02-03T18:31:15.680Z,101678.94
2023-02-03T18:33:43.655Z,101677.50
2023-02-03T18:36:12.790Z,101674.84
2023-02-03T18:38:41.920Z,101673.41
2023-02-03T18:41:23.253Z,101681.25
2023-02-03T18:43:50.140Z,101683.38
2023-02-03T18:46:19.670Z,101681.06
2023-02-03T18:48:46.635Z,101678.19
2023-02-03T18:51:16.556Z,101665.88
2023-02-03T18:53:45.034Z,101664.53
2023-02-03T18:56:35.767Z,101676.53
2023-02-03T18:59:08.751Z,101679.28
2023-02-03T19:01:36.475Z,101683.16
2023-02-03T19:04:03.689Z,101686.03
2023-02-03T19:06:32.386Z,101684.50
2023-02-03T19:09:00.608Z,101686.13
2023-02-03T19:11:27.208Z,101683.69
2023-02-03T19:13:53.862Z,101692.44
2023-02-03T19:16:20.446Z,101686.34
2023-02-03T19:18:47.326Z,101687.13
2023-02-03T19:21:14.434Z,101684.31
2023-02-03T19:23:42.144Z,101688.66
2023-02-03T19:26:09.960Z,101680.25
2023-02-03T19:28:36.936Z,101679.13
2023-02-03T19:31:08.800Z,101680.31
2023-02-03T19:33:36.390Z,101679.31
2023-02-03T19:36:04.695Z,101677.66
2023-02-03T19:38:31.408Z,101674.78
2023-02-03T19:40:57.998Z,101673.56
2023-02-03T19:43:24.798Z,101668.78
2023-02-03T19:45:51.749Z,101663.09
2023-02-03T19:48:19.139Z,101646.75
2023-02-03T19:50:48.734Z,101649.81
2023-02-03T19:53:16.797Z,101647.91
2023-02-03T19:55:44.510Z,101648.25
2023-02-03T19:58:12.479Z,101638.59
2023-02-03T20:00:40.085Z,101641.81
2023-02-03T20:03:06.915Z,101646.53
2023-02-03T20:05:34.512Z,101642.63
2023-02-03T20:08:01.199Z,101653.16
2023-02-03T20:10:28.241Z,101661.44
2023-02-03T20:12:55.220Z,101657.22
2023-02-03T20:15:22.196Z,101661.88
2023-02-03T20:17:48.767Z,101649.47
2023-02-03T20:20:17.390Z,101644.81
2023-02-03T20:22:45.191Z,101643.59
2023-02-03T20:25:11.712Z,101637.88
2023-02-03T20:27:38.277Z,101635.84
2023-02-03T20:30:05.128Z,101631.44
2023-02-03T20:32:31.598Z,101642.09
2023-02-03T20:34:59.185Z,101642.97
2023-02-03T20:37:25.905Z,101638.84
2023-02-03T20:39:52.494Z,101642.66
2023-02-03T20:42:19.060Z,101649.78
2023-02-03T20:44:45.828Z,101654.38
2023-02-03T20:47:14.636Z,101655.25
2023-02-03T20:49:41.434Z,101638.22
2023-02-03T20:52:19.789Z,101638.09
2023-02-03T20:54:46.370Z,101640.66
2023-02-03T20:57:18.251Z,101634.69
2023-02-03T20:59:45.927Z,101642.56
2023-02-03T21:02:31.242Z,101634.69
2023-02-03T21:04:58.818Z,101631.72
2023-02-03T21:07:29.185Z,101633.63
2023-02-03T21:09:57.077Z,101632.41
2023-02-03T21:12:24.471Z,101640.00
2023-02-03T21:14:53.151Z,101628.50
2023-02-03T21:17:22.393Z,101625.56
2023-02-03T21:19:49.336Z,101628.78
2023-02-03T21:22:19.949Z,101623.69
2023-02-03T21:24:57.807Z,101622.28
2023-02-03T21:27:28.730Z,101618.97
2023-02-03T21:29:57.633Z,101622.44
2023-02-03T21:32:36.436Z,101618.53
2023-02-03T21:35:03.052Z,101612.66
2023-02-03T21:37:41.295Z,101609.75
2023-02-03T21:40:29.432Z,101608.13
2023-02-03T21:42:56.687Z,101609.00
2023-02-03T21:45:28.515Z,101612.84
2023-02-03T21:47:57.870Z,101624.00
2023-02-03T21:50:40.794Z,101615.41
2023-02-03T21:53:10.498Z,101610.75
2023-02-03T21:55:38.456Z,101608.09
2023-02-03T21:58:31.398Z,101602.75
2023-02-03T22:01:00.247Z,101597.91
2023-02-03T22:03:31.168Z,101593.59
2023-02-03T22:06:04.682Z,101591.56
2023-02-03T22:08:34.684Z,101598.22
2023-02-03T22:11:01.138Z,101593.28
2023-02-03T22:13:29.489Z,101589.97
2023-02-03T22:15:56.886Z,101590.13
2023-02-03T22:18:23.744Z,101589.38
2023-02-03T22:20:50.829Z,101588.34
2023-02-03T22:23:17.469Z,101595.19
2023-02-03T22:25:43.940Z,101584.31
2023-02-03T22:28:10.468Z,101583.53
2023-02-03T22:30:37.224Z,101588.13
2023-02-03T22:33:03.912Z,101580.78
2023-02-03T22:35:30.545Z,101578.38
2023-02-03T22:37:57.701Z,101578.50
2023-02-03T22:40:24.814Z,101574.94
2023-02-03T22:42:51.965Z,101575.59
2023-02-03T22:45:19.625Z,101574.09
2023-02-03T22:47:46.923Z,101583.81
2023-02-03T22:50:15.456Z,101583.59
2023-02-03T22:52:43.108Z,101574.81
2023-02-03T22:55:10.276Z,101582.81
2023-02-03T22:57:38.135Z,101579.53
2023-02-03T23:00:11.000Z,101588.53
2023-02-03T23:02:40.964Z,101591.22
2023-02-03T23:05:08.982Z,101582.69
2023-02-03T23:07:37.108Z,101586.16
2023-02-03T23:10:05.240Z,101596.78
2023-02-03T23:12:31.817Z,101590.44
2023-02-03T23:14:58.602Z,101592.59
2023-02-03T23:17:25.279Z,101578.66
2023-02-03T23:19:51.761Z,101571.44
2023-02-03T23:22:19.004Z,101568.38
2023-02-03T23:24:45.554Z,101561.03
2023-02-03T23:27:12.103Z,101567.50
2023-02-03T23:29:39.187Z,101566.75
2023-02-03T23:32:06.687Z,101565.50
2023-02-03T23:34:51.946Z,101567.50
2023-02-03T23:37:19.167Z,101560.53
2023-02-03T23:39:45.707Z,101568.75
2023-02-03T23:42:12.201Z,101572.06
2023-02-03T23:44:38.729Z,101567.78
2023-02-03T23:47:05.336Z,101577.78
2023-02-03T23:49:31.888Z,101571.94
2023-02-03T23:51:58.907Z,101570.44
2023-02-03T23:54:25.790Z,101571.06
2023-02-03T23:56:52.795Z,101569.19
2023-02-03T23:59:20.296Z,101564.09
